sensor_id;sensor_type;location;lat;lon;timestamp;pressure;altitude;pressure_sealevel;temperature;humidity
77939;BME280;67136;47.546;21.630;2023-10-08T00:02:59;100062.22;;;16.27;62.81
77939;BME280;67136;47.546;21.630;2023-10-08T00:06:08;100057.63;;;16.13;63.22
77939;BME280;67136;47.546;21.630;2023-10-08T00:09:15;100064.88;;;16.03;63.49
77939;BME280;67136;47.546;21.630;2023-10-08T00:12:19;100060.63;;;15.94;64.00
77939;BME280;67136;47.546;21.630;2023-10-08T00:15:21;100049.44;;;15.84;64.32
77939;BME280;67136;47.546;21.630;2023-10-08T00:18:28;100046.63;;;15.77;64.49
77939;BME280;67136;47.546;21.630;2023-10-08T00:21:30;100036.72;;;15.79;64.22
77939;BME280;67136;47.546;21.630;2023-10-08T00:24:36;100039.19;;;15.73;64.42
77939;BME280;67136;47.546;21.630;2023-10-08T00:27:41;100037.56;;;15.72;64.26
77939;BME280;67136;47.546;21.630;2023-10-08T00:30:44;100025.03;;;15.74;63.69
77939;BME280;67136;47.546;21.630;2023-10-08T00:33:46;100034.59;;;15.67;63.85
77939;BME280;67136;47.546;21.630;2023-10-08T00:36:50;100021.44;;;15.59;63.97
77939;BME280;67136;47.546;21.630;2023-10-08T00:39:56;100025.69;;;15.76;63.00
77939;BME280;67136;47.546;21.630;2023-10-08T00:43:00;100034.41;;;15.84;62.31
77939;BME280;67136;47.546;21.630;2023-10-08T00:46:07;100031.28;;;15.73;62.67
77939;BME280;67136;47.546;21.630;2023-10-08T00:49:28;100035.41;;;15.83;61.71
77939;BME280;67136;47.546;21.630;2023-10-08T00:52:50;100026.00;;;15.73;62.02
77939;BME280;67136;47.546;21.630;2023-10-08T00:56:03;100020.56;;;15.74;61.63
77939;BME280;67136;47.546;21.630;2023-10-08T00:59:10;100025.69;;;15.84;60.71
77939;BME280;67136;47.546;21.630;2023-10-08T01:02:17;100015.12;;;15.92;59.99
77939;BME280;67136;47.546;21.630;2023-10-08T01:05:23;100009.19;;;15.98;59.65
77939;BME280;67136;47.546;21.630;2023-10-08T01:08:31;100023.37;;;15.97;59.20
77939;BME280;67136;47.546;21.630;2023-10-08T01:12:24;100021.41;;;15.83;60.26
77939;BME280;67136;47.546;21.630;2023-10-08T01:15:36;100005.09;;;15.87;59.77
77939;BME280;67136;47.546;21.630;2023-10-08T01:18:39;100000.78;;;15.94;59.31
77939;BME280;67136;47.546;21.630;2023-10-08T01:21:48;100002.94;;;15.99;58.95
77939;BME280;67136;47.546;21.630;2023-10-08T01:24:54;99992.69;;;16.04;58.71
77939;BME280;67136;47.546;21.630;2023-10-08T01:27:57;99982.78;;;16.14;58.11
77939;BME280;67136;47.546;21.630;2023-10-08T01:31:10;99988.69;;;16.24;57.49
77939;BME280;67136;47.546;21.630;2023-10-08T01:34:15;99973.00;;;16.31;57.30
77939;BME280;67136;47.546;21.630;2023-10-08T01:37:19;99958.28;;;16.36;56.94
77939;BME280;67136;47.546;21.630;2023-10-08T01:40:24;99971.50;;;16.36;56.89
77939;BME280;67136;47.546;21.630;2023-10-08T01:43:30;99966.53;;;16.41;56.72
77939;BME280;67136;47.546;21.630;2023-10-08T01:46:32;99960.41;;;16.49;56.48
77939;BME280;67136;47.546;21.630;2023-10-08T01:49:38;99956.44;;;16.53;56.28
77939;BME280;67136;47.546;21.630;2023-10-08T01:52:42;99946.84;;;16.52;56.37
77939;BME280;67136;47.546;21.630;2023-10-08T01:55:48;99942.88;;;16.56;56.00
77939;BME280;67136;47.546;21.630;2023-10-08T01:58:51;99926.22;;;16.55;56.26
77939;BME280;67136;47.546;21.630;2023-10-08T02:01:54;99922.78;;;16.55;56.33
77939;BME280;67136;47.546;21.630;2023-10-08T02:04:59;99919.97;;;16.56;56.33
77939;BME280;67136;47.546;21.630;2023-10-08T02:08:02;99920.25;;;16.61;56.04
77939;BME280;67136;47.546;21.630;2023-10-08T02:11:06;99912.00;;;16.64;55.92
77939;BME280;67136;47.546;21.630;2023-10-08T02:14:11;99898.59;;;16.66;55.96
77939;BME280;67136;47.546;21.630;2023-10-08T02:17:14;99893.31;;;16.66;56.11
77939;BME280;67136;47.546;21.630;2023-10-08T02:20:17;99898.12;;;16.62;56.27
77939;BME280;67136;47.546;21.630;2023-10-08T02:23:21;99902.09;;;16.58;56.47
77939;BME280;67136;47.546;21.630;2023-10-08T02:26:24;99904.25;;;16.63;56.31
77939;BME280;67136;47.546;21.630;2023-10-08T02:29:29;99904.59;;;16.60;56.59
77939;BME280;67136;47.546;21.630;2023-10-08T02:32:32;99889.56;;;16.60;56.72
77939;BME280;67136;47.546;21.630;2023-10-08T02:35:35;99888.28;;;16.56;56.94
77939;BME280;67136;47.546;21.630;2023-10-08T02:38:38;99886.63;;;16.55;56.92
77939;BME280;67136;47.546;21.630;2023-10-08T02:41:42;99888.28;;;16.56;56.81
77939;BME280;67136;47.546;21.630;2023-10-08T02:44:46;99883.00;;;16.56;57.03
77939;BME280;67136;47.546;21.630;2023-10-08T02:47:49;99880.06;;;16.51;57.25
77939;BME280;67136;47.546;21.630;2023-10-08T02:50:52;99878.41;;;16.50;57.34
77939;BME280;67136;47.546;21.630;2023-10-08T02:53:56;99869.81;;;16.56;57.22
77939;BME280;67136;47.546;21.630;2023-10-08T02:56:59;99876.41;;;16.52;57.51
77939;BME280;67136;47.546;21.630;2023-10-08T03:00:07;99878.06;;;16.53;57.66
77939;BME280;67136;47.546;21.630;2023-10-08T03:03:16;99883.47;;;16.60;57.28
77939;BME280;67136;47.546;21.630;2023-10-08T03:06:21;99877.97;;;16.69;57.01
77939;BME280;67136;47.546;21.630;2023-10-08T03:09:24;99879.47;;;16.64;57.15
77939;BME280;67136;47.546;21.630;2023-10-08T03:12:28;99876.94;;;16.70;56.82
77939;BME280;67136;47.546;21.630;2023-10-08T03:15:34;99881.47;;;16.84;56.02
77939;BME280;67136;47.546;21.630;2023-10-08T03:18:57;99879.13;;;16.89;55.70
77939;BME280;67136;47.546;21.630;2023-10-08T03:22:00;99885.56;;;16.87;55.80
77939;BME280;67136;47.546;21.630;2023-10-08T03:25:06;99885.13;;;16.83;55.70
77939;BME280;67136;47.546;21.630;2023-10-08T03:28:18;99888.47;;;16.77;55.66
77939;BME280;67136;47.546;21.630;2023-10-08T03:31:22;99882.13;;;16.64;56.27
77939;BME280;67136;47.546;21.630;2023-10-08T03:34:34;99873.66;;;16.46;56.94
77939;BME280;67136;47.546;21.630;2023-10-08T03:37:38;99865.59;;;16.39;57.15
77939;BME280;67136;47.546;21.630;2023-10-08T03:40:48;99868.59;;;16.28;57.63
77939;BME280;67136;47.546;21.630;2023-10-08T03:43:52;99865.03;;;16.13;58.24
77939;BME280;67136;47.546;21.630;2023-10-08T03:46:58;99872.34;;;16.03;58.74
77939;BME280;67136;47.546;21.630;2023-10-08T03:50:00;99872.16;;;16.04;59.09
77939;BME280;67136;47.546;21.630;2023-10-08T03:53:09;99876.66;;;16.04;58.96
77939;BME280;67136;47.546;21.630;2023-10-08T03:56:15;99877.13;;;16.07;59.15
77939;BME280;67136;47.546;21.630;2023-10-08T03:59:22;99874.06;;;15.96;59.62
77939;BME280;67136;47.546;21.630;2023-10-08T04:02:33;99864.66;;;15.93;59.43
77939;BME280;67136;47.546;21.630;2023-10-08T04:05:43;99859.19;;;15.95;59.47
77939;BME280;67136;47.546;21.630;2023-10-08T04:09:08;99870.41;;;15.97;59.33
77939;BME280;67136;47.546;21.630;2023-10-08T04:12:11;99860.69;;;15.97;59.30
77939;BME280;67136;47.546;21.630;2023-10-08T04:15:14;99858.22;;;15.96;59.43
77939;BME280;67136;47.546;21.630;2023-10-08T04:18:19;99851.97;;;15.89;59.71
77939;BME280;67136;47.546;21.630;2023-10-08T04:21:23;99848.87;;;15.85;59.81
77939;BME280;67136;47.546;21.630;2023-10-08T04:24:30;99850.66;;;15.85;59.89
77939;BME280;67136;47.546;21.630;2023-10-08T04:27:39;99851.97;;;15.89;59.61
77939;BME280;67136;47.546;21.630;2023-10-08T04:30:42;99850.63;;;16.01;59.13
77939;BME280;67136;47.546;21.630;2023-10-08T04:33:45;99849.78;;;16.00;59.07
77939;BME280;67136;47.546;21.630;2023-10-08T04:36:49;99850.75;;;16.07;58.68
77939;BME280;67136;47.546;21.630;2023-10-08T04:40:03;99835.06;;;16.14;58.40
77939;BME280;67136;47.546;21.630;2023-10-08T04:43:07;99824.38;;;16.07;58.47
77939;BME280;67136;47.546;21.630;2023-10-08T04:46:13;99819.28;;;15.98;58.83
77939;BME280;67136;47.546;21.630;2023-10-08T04:49:22;99830.16;;;16.03;58.63
77939;BME280;67136;47.546;21.630;2023-10-08T04:52:31;99836.94;;;15.97;59.01
77939;BME280;67136;47.546;21.630;2023-10-08T04:55:36;99846.84;;;15.95;58.98
77939;BME280;67136;47.546;21.630;2023-10-08T04:58:46;99845.03;;;15.88;59.63
77939;BME280;67136;47.546;21.630;2023-10-08T05:01:49;99846.41;;;15.76;59.92
77939;BME280;67136;47.546;21.630;2023-10-08T05:05:11;99844.56;;;15.84;59.83
77939;BME280;67136;47.546;21.630;2023-10-08T05:08:14;99841.56;;;15.95;59.38
77939;BME280;67136;47.546;21.630;2023-10-08T05:11:30;99842.72;;;15.93;59.75
77939;BME280;67136;47.546;21.630;2023-10-08T05:14:48;99845.06;;;16.18;58.61
77939;BME280;67136;47.546;21.630;2023-10-08T05:18:20;99838.94;;;16.26;58.55
77939;BME280;67136;47.546;21.630;2023-10-08T05:21:40;99844.34;;;16.33;58.37
77939;BME280;67136;47.546;21.630;2023-10-08T05:24:55;99838.91;;;16.34;58.41
77939;BME280;67136;47.546;21.630;2023-10-08T05:28:16;99854.38;;;16.37;58.43
77939;BME280;67136;47.546;21.630;2023-10-08T05:31:29;99860.09;;;16.49;58.02
77939;BME280;67136;47.546;21.630;2023-10-08T05:34:44;99854.16;;;16.55;57.97
77939;BME280;67136;47.546;21.630;2023-10-08T05:37:58;99853.44;;;16.61;57.86
77939;BME280;67136;47.546;21.630;2023-10-08T05:41:15;99857.53;;;16.63;58.01
77939;BME280;67136;47.546;21.630;2023-10-08T05:44:31;99858.47;;;16.70;57.95
77939;BME280;67136;47.546;21.630;2023-10-08T05:47:43;99859.88;;;16.81;57.67
77939;BME280;67136;47.546;21.630;2023-10-08T05:51:08;99868.75;;;16.88;57.64
77939;BME280;67136;47.546;21.630;2023-10-08T05:54:32;99863.75;;;16.93;57.58
77939;BME280;67136;47.546;21.630;2023-10-08T05:57:35;99877.91;;;17.00;57.17
77939;BME280;67136;47.546;21.630;2023-10-08T06:00:41;99879.81;;;17.06;57.00
77939;BME280;67136;47.546;21.630;2023-10-08T06:03:54;99860.16;;;17.08;56.96
77939;BME280;67136;47.546;21.630;2023-10-08T06:07:03;99845.28;;;17.07;56.87
77939;BME280;67136;47.546;21.630;2023-10-08T06:10:20;99852.81;;;17.18;56.57
77939;BME280;67136;47.546;21.630;2023-10-08T06:13:32;99858.28;;;17.31;56.10
77939;BME280;67136;47.546;21.630;2023-10-08T06:16:53;99845.94;;;17.47;55.56
77939;BME280;67136;47.546;21.630;2023-10-08T06:20:15;99844.84;;;17.56;55.45
77939;BME280;67136;47.546;21.630;2023-10-08T06:23:19;99850.53;;;17.67;55.09
77939;BME280;67136;47.546;21.630;2023-10-08T06:26:27;99861.84;;;17.76;54.84
77939;BME280;67136;47.546;21.630;2023-10-08T06:29:37;99867.84;;;17.99;54.47
77939;BME280;67136;47.546;21.630;2023-10-08T06:32:47;99872.00;;;18.08;54.31
77939;BME280;67136;47.546;21.630;2023-10-08T06:35:53;99881.50;;;18.17;53.85
77939;BME280;67136;47.546;21.630;2023-10-08T06:39:05;99898.72;;;18.42;53.48
77939;BME280;67136;47.546;21.630;2023-10-08T06:42:17;99903.56;;;18.53;53.16
77939;BME280;67136;47.546;21.630;2023-10-08T06:45:23;99895.09;;;18.64;53.09
77939;BME280;67136;47.546;21.630;2023-10-08T06:48:30;99893.34;;;18.71;52.96
77939;BME280;67136;47.546;21.630;2023-10-08T06:51:35;99892.41;;;18.79;52.76
77939;BME280;67136;47.546;21.630;2023-10-08T06:54:38;99873.03;;;18.57;53.19
77939;BME280;67136;47.546;21.630;2023-10-08T06:57:40;99865.19;;;18.49;53.21
77939;BME280;67136;47.546;21.630;2023-10-08T07:00:46;99867.00;;;18.63;53.16
77939;BME280;67136;47.546;21.630;2023-10-08T07:03:51;99865.53;;;18.61;53.38
77939;BME280;67136;47.546;21.630;2023-10-08T07:06:55;99879.47;;;18.48;53.95
77939;BME280;67136;47.546;21.630;2023-10-08T07:10:00;99871.94;;;18.37;54.31
77939;BME280;67136;47.546;21.630;2023-10-08T07:13:03;99879.91;;;18.37;54.45
77939;BME280;67136;47.546;21.630;2023-10-08T07:16:06;99886.41;;;18.91;53.12
77939;BME280;67136;47.546;21.630;2023-10-08T07:19:14;99891.75;;;19.40;52.18
77939;BME280;67136;47.546;21.630;2023-10-08T07:22:20;99884.44;;;19.76;51.26
77939;BME280;67136;47.546;21.630;2023-10-08T07:25:26;99880.56;;;19.72;51.15
77939;BME280;67136;47.546;21.630;2023-10-08T07:28:40;99864.69;;;19.78;51.04
77939;BME280;67136;47.546;21.630;2023-10-08T07:31:44;99876.34;;;19.50;51.88
77939;BME280;67136;47.546;21.630;2023-10-08T07:34:51;99876.47;;;19.21;52.83
77939;BME280;67136;47.546;21.630;2023-10-08T07:38:00;99871.03;;;19.01;53.31
77939;BME280;67136;47.546;21.630;2023-10-08T07:41:06;99871.37;;;19.19;53.36
77939;BME280;67136;47.546;21.630;2023-10-08T07:44:09;99881.03;;;19.54;52.58
77939;BME280;67136;47.546;21.630;2023-10-08T07:47:16;99881.50;;;19.92;52.21
77939;BME280;67136;47.546;21.630;2023-10-08T07:50:19;99879.94;;;20.11;51.57
77939;BME280;67136;47.546;21.630;2023-10-08T07:53:22;99889.41;;;20.20;51.66
77939;BME280;67136;47.546;21.630;2023-10-08T07:56:27;99892.34;;;20.38;51.38
77939;BME280;67136;47.546;21.630;2023-10-08T07:59:29;99897.72;;;20.57;51.03
77939;BME280;67136;47.546;21.630;2023-10-08T08:02:32;99904.25;;;20.55;50.79
77939;BME280;67136;47.546;21.630;2023-10-08T08:05:36;99903.47;;;20.67;50.74
77939;BME280;67136;47.546;21.630;2023-10-08T08:08:40;99903.06;;;20.70;50.61
77939;BME280;67136;47.546;21.630;2023-10-08T08:11:43;99903.09;;;20.90;50.36
77939;BME280;67136;47.546;21.630;2023-10-08T08:14:48;99900.50;;;21.16;49.74
77939;BME280;67136;47.546;21.630;2023-10-08T08:17:51;99909.72;;;21.46;49.32
77939;BME280;67136;47.546;21.630;2023-10-08T08:20:54;99899.88;;;21.79;49.11
77939;BME280;67136;47.546;21.630;2023-10-08T08:23:57;99899.44;;;21.76;48.71
77939;BME280;67136;47.546;21.630;2023-10-08T08:27:07;99907.25;;;21.64;49.04
77939;BME280;67136;47.546;21.630;2023-10-08T08:30:13;99909.72;;;21.79;49.15
77939;BME280;67136;47.546;21.630;2023-10-08T08:33:20;99919.66;;;22.09;48.07
77939;BME280;67136;47.546;21.630;2023-10-08T08:36:30;99932.06;;;22.42;47.31
77939;BME280;67136;47.546;21.630;2023-10-08T08:39:34;99944.06;;;22.06;48.26
77939;BME280;67136;47.546;21.630;2023-10-08T08:42:39;99940.41;;;21.81;48.96
77939;BME280;67136;47.546;21.630;2023-10-08T08:45:43;99943.25;;;22.12;48.76
77939;BME280;67136;47.546;21.630;2023-10-08T08:48:46;99934.97;;;22.34;48.54
77939;BME280;67136;47.546;21.630;2023-10-08T08:51:53;99929.62;;;22.84;47.34
77939;BME280;67136;47.546;21.630;2023-10-08T08:54:58;99941.03;;;23.29;46.34
77939;BME280;67136;47.546;21.630;2023-10-08T08:58:01;99977.44;;;23.48;45.57
77939;BME280;67136;47.546;21.630;2023-10-08T09:01:06;99996.91;;;21.57;49.72
77939;BME280;67136;47.546;21.630;2023-10-08T09:04:10;100025.31;;;19.18;54.99
77939;BME280;67136;47.546;21.630;2023-10-08T09:07:13;100032.53;;;18.30;56.91
77939;BME280;67136;47.546;21.630;2023-10-08T09:10:16;100056.25;;;18.23;57.14
77939;BME280;67136;47.546;21.630;2023-10-08T09:13:21;100056.56;;;17.91;58.21
77939;BME280;67136;47.546;21.630;2023-10-08T09:16:25;100075.84;;;18.00;58.27
77939;BME280;67136;47.546;21.630;2023-10-08T09:19:35;100080.87;;;17.50;59.60
77939;BME280;67136;47.546;21.630;2023-10-08T09:22:38;100105.56;;;16.95;60.84
77939;BME280;67136;47.546;21.630;2023-10-08T09:25:43;100121.47;;;16.87;61.45
77939;BME280;67136;47.546;21.630;2023-10-08T09:28:46;100131.13;;;16.64;59.46
77939;BME280;67136;47.546;21.630;2023-10-08T09:31:56;100138.34;;;16.70;58.71
77939;BME280;67136;47.546;21.630;2023-10-08T09:35:00;100135.44;;;16.17;59.55
77939;BME280;67136;47.546;21.630;2023-10-08T09:38:04;100162.16;;;16.06;60.42
77939;BME280;67136;47.546;21.630;2023-10-08T09:41:07;100158.50;;;16.23;60.40
77939;BME280;67136;47.546;21.630;2023-10-08T09:44:11;100151.12;;;16.35;60.01
77939;BME280;67136;47.546;21.630;2023-10-08T09:47:20;100166.50;;;16.94;58.51
77939;BME280;67136;47.546;21.630;2023-10-08T09:50:32;100169.37;;;16.68;58.85
77939;BME280;67136;47.546;21.630;2023-10-08T09:56:53;100192.28;;;15.71;61.18
77939;BME280;67136;47.546;21.630;2023-10-08T09:59:57;100201.75;;;15.15;61.53
77939;BME280;67136;47.546;21.630;2023-10-08T10:03:01;100197.94;;;15.09;61.54
77939;BME280;67136;47.546;21.630;2023-10-08T10:06:12;100211.62;;;15.13;61.24
77939;BME280;67136;47.546;21.630;2023-10-08T10:09:20;100221.06;;;14.89;61.52
77939;BME280;67136;47.546;21.630;2023-10-08T10:12:27;100241.72;;;14.59;62.08
77939;BME280;67136;47.546;21.630;2023-10-08T10:15:32;100249.09;;;14.55;62.71
77939;BME280;67136;47.546;21.630;2023-10-08T10:18:37;100252.00;;;14.44;63.30
77939;BME280;67136;47.546;21.630;2023-10-08T10:21:40;100247.16;;;14.22;64.08
77939;BME280;67136;47.546;21.630;2023-10-08T10:24:45;100247.63;;;14.35;64.46
77939;BME280;67136;47.546;21.630;2023-10-08T10:30:56;100255.03;;;14.22;67.95
77939;BME280;67136;47.546;21.630;2023-10-08T10:33:59;100243.41;;;14.07;69.64
77939;BME280;67136;47.546;21.630;2023-10-08T10:37:08;100248.41;;;13.83;68.45
77939;BME280;67136;47.546;21.630;2023-10-08T10:40:12;100259.09;;;13.99;67.37
77939;BME280;67136;47.546;21.630;2023-10-08T10:43:15;100270.75;;;14.14;66.05
77939;BME280;67136;47.546;21.630;2023-10-08T10:46:20;100285.09;;;13.75;67.36
77939;BME280;67136;47.546;21.630;2023-10-08T10:49:33;100300.69;;;13.59;68.70
77939;BME280;67136;47.546;21.630;2023-10-08T10:52:42;100312.66;;;13.34;71.23
77939;BME280;67136;47.546;21.630;2023-10-08T10:55:48;100329.88;;;13.00;76.83
77939;BME280;67136;47.546;21.630;2023-10-08T10:59:05;100318.41;;;12.92;81.39
77939;BME280;67136;47.546;21.630;2023-10-08T11:02:21;100312.75;;;12.87;81.93
77939;BME280;67136;47.546;21.630;2023-10-08T11:05:33;100331.69;;;13.46;81.90
77939;BME280;67136;47.546;21.630;2023-10-08T11:08:40;100309.53;;;13.85;77.97
77939;BME280;67136;47.546;21.630;2023-10-08T11:11:51;100305.16;;;13.76;79.13
77939;BME280;67136;47.546;21.630;2023-10-08T11:14:57;100301.25;;;13.53;77.42
77939;BME280;67136;47.546;21.630;2023-10-08T11:18:00;100303.00;;;13.35;78.83
77939;BME280;67136;47.546;21.630;2023-10-08T11:21:09;100308.31;;;13.06;78.25
77939;BME280;67136;47.546;21.630;2023-10-08T11:24:29;100315.22;;;12.98;78.80
77939;BME280;67136;47.546;21.630;2023-10-08T11:27:36;100317.16;;;12.96;77.66
77939;BME280;67136;47.546;21.630;2023-10-08T11:30:40;100315.53;;;12.85;78.12
77939;BME280;67136;47.546;21.630;2023-10-08T11:33:45;100309.69;;;13.01;76.22
77939;BME280;67136;47.546;21.630;2023-10-08T11:36:56;100316.03;;;12.89;76.84
77939;BME280;67136;47.546;21.630;2023-10-08T11:40:00;100311.94;;;13.05;75.80
77939;BME280;67136;47.546;21.630;2023-10-08T11:43:10;100322.97;;;12.90;76.58
77939;BME280;67136;47.546;21.630;2023-10-08T11:46:19;100329.97;;;12.99;75.95
77939;BME280;67136;47.546;21.630;2023-10-08T11:49:22;100326.00;;;13.04;74.74
77939;BME280;67136;47.546;21.630;2023-10-08T11:52:28;100327.94;;;13.12;74.40
77939;BME280;67136;47.546;21.630;2023-10-08T11:55:32;100336.28;;;13.44;73.71
77939;BME280;67136;47.546;21.630;2023-10-08T11:58:40;100340.50;;;13.54;73.82
77939;BME280;67136;47.546;21.630;2023-10-08T12:01:46;100340.84;;;13.79;72.13
77939;BME280;67136;47.546;21.630;2023-10-08T12:04:50;100336.59;;;13.95;70.95
77939;BME280;67136;47.546;21.630;2023-10-08T12:07:54;100340.16;;;13.77;71.62
77939;BME280;67136;47.546;21.630;2023-10-08T12:11:00;100339.69;;;14.08;70.92
77939;BME280;67136;47.546;21.630;2023-10-08T12:14:04;100333.28;;;13.93;70.51
77939;BME280;67136;47.546;21.630;2023-10-08T12:17:07;100346.00;;;13.70;71.01
77939;BME280;67136;47.546;21.630;2023-10-08T12:20:16;100352.16;;;14.06;69.45
77939;BME280;67136;47.546;21.630;2023-10-08T12:23:26;100359.37;;;14.04;70.07
77939;BME280;67136;47.546;21.630;2023-10-08T12:26:28;100354.12;;;14.04;69.36
77939;BME280;67136;47.546;21.630;2023-10-08T12:29:32;100342.31;;;14.35;68.60
77939;BME280;67136;47.546;21.630;2023-10-08T12:32:35;100353.81;;;14.52;68.90
77939;BME280;67136;47.546;21.630;2023-10-08T12:35:40;100350.66;;;14.31;68.93
77939;BME280;67136;47.546;21.630;2023-10-08T12:38:43;100363.44;;;14.43;69.10
77939;BME280;67136;47.546;21.630;2023-10-08T12:41:46;100367.13;;;14.50;69.57
77939;BME280;67136;47.546;21.630;2023-10-08T12:44:49;100380.00;;;14.36;69.50
77939;BME280;67136;47.546;21.630;2023-10-08T12:47:52;100381.41;;;14.30;69.51
77939;BME280;67136;47.546;21.630;2023-10-08T12:50:55;100390.38;;;14.37;69.92
77939;BME280;67136;47.546;21.630;2023-10-08T12:54:01;100381.59;;;14.46;69.22
77939;BME280;67136;47.546;21.630;2023-10-08T12:57:14;100378.88;;;14.73;68.51
77939;BME280;67136;47.546;21.630;2023-10-08T13:00:22;100371.63;;;15.11;67.54
77939;BME280;67136;47.546;21.630;2023-10-08T13:03:26;100370.06;;;15.26;66.56
77939;BME280;67136;47.546;21.630;2023-10-08T13:06:34;100375.44;;;15.16;67.21
77939;BME280;67136;47.546;21.630;2023-10-08T13:09:39;100372.59;;;15.10;67.32
77939;BME280;67136;47.546;21.630;2023-10-08T13:12:42;100370.59;;;15.04;67.57
77939;BME280;67136;47.546;21.630;2023-10-08T13:15:44;100380.56;;;15.18;67.01
77939;BME280;67136;47.546;21.630;2023-10-08T13:18:48;100377.34;;;15.24;66.50
77939;BME280;67136;47.546;21.630;2023-10-08T13:21:50;100384.25;;;15.42;64.49
77939;BME280;67136;47.546;21.630;2023-10-08T13:24:57;100386.16;;;15.66;62.46
77939;BME280;67136;47.546;21.630;2023-10-08T13:27:59;100388.06;;;15.81;60.59
77939;BME280;67136;47.546;21.630;2023-10-08T13:31:03;100385.53;;;16.47;56.97
77939;BME280;67136;47.546;21.630;2023-10-08T13:34:12;100389.19;;;17.42;53.81
77939;BME280;67136;47.546;21.630;2023-10-08T13:37:15;100391.09;;;21.41;43.21
77939;BME280;67136;47.546;21.630;2023-10-08T13:40:18;100393.88;;;23.48;37.46
77939;BME280;67136;47.546;21.630;2023-10-08T13:43:21;100397.78;;;19.73;43.29
77939;BME280;67136;47.546;21.630;2023-10-08T13:46:35;100398.84;;;18.90;44.71
77939;BME280;67136;47.546;21.630;2023-10-08T13:49:39;100399.97;;;19.55;43.60
77939;BME280;67136;47.546;21.630;2023-10-08T13:52:43;100408.75;;;20.29;42.61
77939;BME280;67136;47.546;21.630;2023-10-08T13:55:46;100421.53;;;18.39;46.31
77939;BME280;67136;47.546;21.630;2023-10-08T13:58:53;100420.50;;;18.02;47.58
77939;BME280;67136;47.546;21.630;2023-10-08T14:02:06;100426.38;;;18.20;47.33
77939;BME280;67136;47.546;21.630;2023-10-08T14:05:17;100429.87;;;16.93;50.05
77939;BME280;67136;47.546;21.630;2023-10-08T14:08:20;100423.41;;;16.96;49.64
77939;BME280;67136;47.546;21.630;2023-10-08T14:11:26;100433.41;;;16.18;51.81
77939;BME280;67136;47.546;21.630;2023-10-08T14:14:32;100442.38;;;16.34;51.77
77939;BME280;67136;47.546;21.630;2023-10-08T14:17:37;100435.28;;;16.26;52.24
77939;BME280;67136;47.546;21.630;2023-10-08T14:20:45;100438.81;;;16.09;51.98
77939;BME280;67136;47.546;21.630;2023-10-08T14:23:50;100442.22;;;16.01;52.22
77939;BME280;67136;47.546;21.630;2023-10-08T14:26:54;100452.97;;;17.80;47.08
77939;BME280;67136;47.546;21.630;2023-10-08T14:30:00;100457.94;;;17.75;46.16
77939;BME280;67136;47.546;21.630;2023-10-08T14:33:04;100456.16;;;16.19;50.09
77939;BME280;67136;47.546;21.630;2023-10-08T14:36:11;100457.66;;;16.14;49.94
77939;BME280;67136;47.546;21.630;2023-10-08T14:39:33;100453.03;;;15.82;51.32
77939;BME280;67136;47.546;21.630;2023-10-08T14:42:54;100459.94;;;15.58;52.39
77939;BME280;67136;47.546;21.630;2023-10-08T14:46:01;100460.09;;;15.39;52.99
77939;BME280;67136;47.546;21.630;2023-10-08T14:49:07;100466.78;;;15.68;50.88
77939;BME280;67136;47.546;21.630;2023-10-08T14:52:12;100479.59;;;15.28;51.48
77939;BME280;67136;47.546;21.630;2023-10-08T14:55:15;100485.25;;;14.98;51.74
77939;BME280;67136;47.546;21.630;2023-10-08T14:58:23;100497.59;;;14.80;52.16
77939;BME280;67136;47.546;21.630;2023-10-08T15:01:29;100500.56;;;14.67;52.77
77939;BME280;67136;47.546;21.630;2023-10-08T15:04:35;100509.72;;;14.36;53.75
77939;BME280;67136;47.546;21.630;2023-10-08T15:07:42;100520.69;;;14.22;53.11
77939;BME280;67136;47.546;21.630;2023-10-08T15:10:44;100515.06;;;14.08;52.85
77939;BME280;67136;47.546;21.630;2023-10-08T15:13:51;100525.88;;;13.95;52.22
77939;BME280;67136;47.546;21.630;2023-10-08T15:16:56;100535.87;;;13.82;52.55
77939;BME280;67136;47.546;21.630;2023-10-08T15:19:59;100541.56;;;13.68;52.79
77939;BME280;67136;47.546;21.630;2023-10-08T15:23:02;100548.91;;;13.55;53.31
77939;BME280;67136;47.546;21.630;2023-10-08T15:26:06;100554.31;;;13.44;53.50
77939;BME280;67136;47.546;21.630;2023-10-08T15:29:09;100557.75;;;13.35;54.05
77939;BME280;67136;47.546;21.630;2023-10-08T15:32:12;100571.69;;;13.26;54.73
77939;BME280;67136;47.546;21.630;2023-10-08T15:35:17;100571.69;;;13.07;55.42
77939;BME280;67136;47.546;21.630;2023-10-08T15:38:22;100572.44;;;12.88;55.88
77939;BME280;67136;47.546;21.630;2023-10-08T15:41:28;100595.56;;;12.74;56.89
77939;BME280;67136;47.546;21.630;2023-10-08T15:44:30;100596.13;;;12.68;55.39
77939;BME280;67136;47.546;21.630;2023-10-08T15:47:33;100594.66;;;12.54;55.18
77939;BME280;67136;47.546;21.630;2023-10-08T15:50:37;100602.66;;;12.43;55.75
77939;BME280;67136;47.546;21.630;2023-10-08T15:53:41;100600.63;;;12.26;55.64
77939;BME280;67136;47.546;21.630;2023-10-08T15:56:44;100603.59;;;12.21;55.01
77939;BME280;67136;47.546;21.630;2023-10-08T15:59:46;100593.19;;;12.10;54.52
77939;BME280;67136;47.546;21.630;2023-10-08T16:02:49;100605.72;;;12.07;53.88
77939;BME280;67136;47.546;21.630;2023-10-08T16:05:52;100620.50;;;11.87;54.48
77939;BME280;67136;47.546;21.630;2023-10-08T16:08:57;100633.47;;;11.89;54.40
77939;BME280;67136;47.546;21.630;2023-10-08T16:11:59;100639.56;;;11.89;54.42
77939;BME280;67136;47.546;21.630;2023-10-08T16:15:03;100655.09;;;11.70;55.01
77939;BME280;67136;47.546;21.630;2023-10-08T16:18:07;100662.69;;;11.73;56.16